sensor_id;sensor_type;location;lat;lon;timestamp;P1;durP1;ratioP1;P2;durP2;ratioP2
43014;SDS011;28637;50.554;7.032;2023-07-13T00:04:26;2.45;;;1.10;;
43014;SDS011;28637;50.554;7.032;2023-07-13T00:09:26;4.43;;;0.90;;
43014;SDS011;28637;50.554;7.032;2023-07-13T00:14:28;3.37;;;1.10;;
43014;SDS011;28637;50.554;7.032;2023-07-13T00:19:29;4.20;;;1.20;;
43014;SDS011;28637;50.554;7.032;2023-07-13T00:24:29;1.87;;;0.87;;
43014;SDS011;28637;50.554;7.032;2023-07-13T00:29:30;2.53;;;1.00;;
43014;SDS011;28637;50.554;7.032;2023-07-13T00:34:31;2.07;;;1.30;;
43014;SDS011;28637;50.554;7.032;2023-07-13T00:39:32;2.92;;;1.15;;
43014;SDS011;28637;50.554;7.032;2023-07-13T00:44:34;3.65;;;1.10;;
43014;SDS011;28637;50.554;7.032;2023-07-13T00:49:35;1.90;;;1.00;;
43014;SDS011;28637;50.554;7.032;2023-07-13T00:59:38;2.03;;;0.80;;
43014;SDS011;28637;50.554;7.032;2023-07-13T01:04:42;5.75;;;1.10;;
43014;SDS011;28637;50.554;7.032;2023-07-13T01:14:44;4.88;;;1.10;;
43014;SDS011;28637;50.554;7.032;2023-07-13T01:19:45;2.27;;;1.10;;
43014;SDS011;28637;50.554;7.032;2023-07-13T01:24:47;3.63;;;1.10;;
43014;SDS011;28637;50.554;7.032;2023-07-13T01:29:48;1.75;;;0.82;;
43014;SDS011;28637;50.554;7.032;2023-07-13T01:34:50;4.57;;;1.13;;
43014;SDS011;28637;50.554;7.032;2023-07-13T01:39:54;3.05;;;1.08;;
43014;SDS011;28637;50.554;7.032;2023-07-13T01:44:54;3.07;;;1.20;;
43014;SDS011;28637;50.554;7.032;2023-07-13T01:49:55;1.33;;;0.87;;
43014;SDS011;28637;50.554;7.032;2023-07-13T01:54:55;3.27;;;0.90;;
43014;SDS011;28637;50.554;7.032;2023-07-13T01:59:56;3.63;;;1.50;;
43014;SDS011;28637;50.554;7.032;2023-07-13T02:04:57;2.70;;;1.07;;
43014;SDS011;28637;50.554;7.032;2023-07-13T02:09:57;5.23;;;1.30;;
43014;SDS011;28637;50.554;7.032;2023-07-13T02:14:58;2.33;;;1.10;;
43014;SDS011;28637;50.554;7.032;2023-07-13T02:19:59;2.33;;;1.17;;
43014;SDS011;28637;50.554;7.032;2023-07-13T02:24:59;2.90;;;1.30;;
43014;SDS011;28637;50.554;7.032;2023-07-13T02:30:00;4.63;;;1.13;;
43014;SDS011;28637;50.554;7.032;2023-07-13T02:35:01;3.10;;;1.10;;
43014;SDS011;28637;50.554;7.032;2023-07-13T02:45:08;3.05;;;1.08;;
43014;SDS011;28637;50.554;7.032;2023-07-13T02:50:09;2.03;;;1.20;;
43014;SDS011;28637;50.554;7.032;2023-07-13T02:55:10;4.10;;;1.33;;
43014;SDS011;28637;50.554;7.032;2023-07-13T03:00:11;2.37;;;1.30;;
43014;SDS011;28637;50.554;7.032;2023-07-13T03:05:12;5.53;;;1.20;;
43014;SDS011;28637;50.554;7.032;2023-07-13T03:10:13;4.03;;;1.20;;
43014;SDS011;28637;50.554;7.032;2023-07-13T03:15:13;3.07;;;1.50;;
43014;SDS011;28637;50.554;7.032;2023-07-13T03:20:14;2.67;;;1.40;;
43014;SDS011;28637;50.554;7.032;2023-07-13T03:25:15;3.97;;;1.20;;
43014;SDS011;28637;50.554;7.032;2023-07-13T03:30:15;3.23;;;1.27;;
43014;SDS011;28637;50.554;7.032;2023-07-13T03:35:16;1.87;;;1.20;;
43014;SDS011;28637;50.554;7.032;2023-07-13T03:40:17;3.70;;;1.10;;
43014;SDS011;28637;50.554;7.032;2023-07-13T03:45:18;3.67;;;1.27;;
43014;SDS011;28637;50.554;7.032;2023-07-13T03:50:19;3.43;;;1.30;;
43014;SDS011;28637;50.554;7.032;2023-07-13T03:55:20;5.50;;;1.30;;
43014;SDS011;28637;50.554;7.032;2023-07-13T04:00:20;2.97;;;1.17;;
43014;SDS011;28637;50.554;7.032;2023-07-13T04:05:21;2.37;;;1.30;;
43014;SDS011;28637;50.554;7.032;2023-07-13T04:10:22;6.93;;;1.90;;
43014;SDS011;28637;50.554;7.032;2023-07-13T04:15:22;5.50;;;1.30;;
43014;SDS011;28637;50.554;7.032;2023-07-13T04:20:24;2.13;;;1.20;;
43014;SDS011;28637;50.554;7.032;2023-07-13T04:25:25;3.67;;;1.15;;
43014;SDS011;28637;50.554;7.032;2023-07-13T04:30:26;2.63;;;1.27;;
43014;SDS011;28637;50.554;7.032;2023-07-13T04:35:27;3.60;;;1.10;;
43014;SDS011;28637;50.554;7.032;2023-07-13T04:40:27;5.97;;;1.10;;
43014;SDS011;28637;50.554;7.032;2023-07-13T04:45:28;5.13;;;2.00;;
43014;SDS011;28637;50.554;7.032;2023-07-13T04:50:31;2.15;;;1.10;;
43014;SDS011;28637;50.554;7.032;2023-07-13T04:55:31;2.17;;;1.20;;
43014;SDS011;28637;50.554;7.032;2023-07-13T05:00:32;2.50;;;1.47;;
43014;SDS011;28637;50.554;7.032;2023-07-13T05:05:33;2.73;;;1.47;;
43014;SDS011;28637;50.554;7.032;2023-07-13T05:10:34;3.27;;;1.07;;
43014;SDS011;28637;50.554;7.032;2023-07-13T05:20:36;3.35;;;1.00;;
43014;SDS011;28637;50.554;7.032;2023-07-13T05:25:36;4.70;;;1.50;;
43014;SDS011;28637;50.554;7.032;2023-07-13T05:30:37;5.63;;;1.40;;
43014;SDS011;28637;50.554;7.032;2023-07-13T05:35:38;2.97;;;1.20;;
43014;SDS011;28637;50.554;7.032;2023-07-13T05:40:38;5.57;;;1.50;;
43014;SDS011;28637;50.554;7.032;2023-07-13T05:45:39;3.93;;;1.30;;
43014;SDS011;28637;50.554;7.032;2023-07-13T05:50:40;3.53;;;1.20;;
43014;SDS011;28637;50.554;7.032;2023-07-13T05:55:44;3.73;;;1.20;;
43014;SDS011;28637;50.554;7.032;2023-07-13T06:00:59;2.25;;;1.23;;
43014;SDS011;28637;50.554;7.032;2023-07-13T06:06:05;3.40;;;1.02;;
43014;SDS011;28637;50.554;7.032;2023-07-13T06:11:09;4.07;;;1.20;;
43014;SDS011;28637;50.554;7.032;2023-07-13T06:16:16;4.55;;;1.10;;
43014;SDS011;28637;50.554;7.032;2023-07-13T06:21:19;3.60;;;1.20;;
43014;SDS011;28637;50.554;7.032;2023-07-13T06:26:21;3.53;;;1.13;;
43014;SDS011;28637;50.554;7.032;2023-07-13T06:31:22;3.00;;;1.10;;
43014;SDS011;28637;50.554;7.032;2023-07-13T06:36:22;2.67;;;0.97;;
43014;SDS011;28637;50.554;7.032;2023-07-13T06:41:23;3.20;;;1.23;;
43014;SDS011;28637;50.554;7.032;2023-07-13T06:46:26;4.65;;;1.20;;
43014;SDS011;28637;50.554;7.032;2023-07-13T06:51:29;1.95;;;1.00;;
43014;SDS011;28637;50.554;7.032;2023-07-13T06:56:30;2.87;;;1.07;;
43014;SDS011;28637;50.554;7.032;2023-07-13T07:01:30;2.00;;;1.00;;
43014;SDS011;28637;50.554;7.032;2023-07-13T07:06:32;4.43;;;1.30;;
43014;SDS011;28637;50.554;7.032;2023-07-13T07:11:33;2.22;;;0.90;;
43014;SDS011;28637;50.554;7.032;2023-07-13T07:16:34;3.20;;;1.00;;
43014;SDS011;28637;50.554;7.032;2023-07-13T07:21:34;3.87;;;1.07;;
43014;SDS011;28637;50.554;7.032;2023-07-13T07:26:35;2.40;;;0.80;;
43014;SDS011;28637;50.554;7.032;2023-07-13T07:31:36;4.50;;;1.07;;
43014;SDS011;28637;50.554;7.032;2023-07-13T07:36:37;5.63;;;1.20;;
43014;SDS011;28637;50.554;7.032;2023-07-13T07:41:37;3.43;;;1.03;;
43014;SDS011;28637;50.554;7.032;2023-07-13T07:46:38;3.63;;;0.97;;
43014;SDS011;28637;50.554;7.032;2023-07-13T07:51:41;2.90;;;0.98;;
43014;SDS011;28637;50.554;7.032;2023-07-13T07:56:41;2.03;;;1.00;;
43014;SDS011;28637;50.554;7.032;2023-07-13T08:01:42;5.17;;;1.30;;
43014;SDS011;28637;50.554;7.032;2023-07-13T08:11:44;4.40;;;1.10;;
43014;SDS011;28637;50.554;7.032;2023-07-13T08:16:44;1.90;;;0.77;;
43014;SDS011;28637;50.554;7.032;2023-07-13T08:21:45;3.50;;;0.83;;
43014;SDS011;28637;50.554;7.032;2023-07-13T08:26:48;2.83;;;0.60;;
43014;SDS011;28637;50.554;7.032;2023-07-13T08:31:48;1.53;;;0.60;;
43014;SDS011;28637;50.554;7.032;2023-07-13T08:41:52;1.87;;;0.73;;
43014;SDS011;28637;50.554;7.032;2023-07-13T08:46:59;2.33;;;0.55;;
43014;SDS011;28637;50.554;7.032;2023-07-13T08:52:01;1.85;;;0.73;;
43014;SDS011;28637;50.554;7.032;2023-07-13T08:57:12;1.30;;;0.60;;
43014;SDS011;28637;50.554;7.032;2023-07-13T09:02:18;2.78;;;0.95;;
43014;SDS011;28637;50.554;7.032;2023-07-13T09:18:36;2.50;;;0.85;;
43014;SDS011;28637;50.554;7.032;2023-07-13T09:23:46;3.30;;;1.15;;
43014;SDS011;28637;50.554;7.032;2023-07-13T09:28:49;2.35;;;1.02;;
43014;SDS011;28637;50.554;7.032;2023-07-13T09:33:54;2.05;;;1.00;;
43014;SDS011;28637;50.554;7.032;2023-07-13T09:44:08;1.52;;;0.88;;
43014;SDS011;28637;50.554;7.032;2023-07-13T09:49:13;1.75;;;1.00;;
43014;SDS011;28637;50.554;7.032;2023-07-13T09:54:21;0.88;;;0.60;;
43014;SDS011;28637;50.554;7.032;2023-07-13T09:59:27;1.33;;;0.88;;
43014;SDS011;28637;50.554;7.032;2023-07-13T10:04:33;1.80;;;0.70;;
43014;SDS011;28637;50.554;7.032;2023-07-13T10:09:34;1.95;;;0.80;;
43014;SDS011;28637;50.554;7.032;2023-07-13T10:14:35;5.18;;;0.90;;
43014;SDS011;28637;50.554;7.032;2023-07-13T10:19:36;1.58;;;0.90;;
43014;SDS011;28637;50.554;7.032;2023-07-13T10:24:37;1.92;;;1.08;;
43014;SDS011;28637;50.554;7.032;2023-07-13T10:29:41;3.25;;;0.82;;
43014;SDS011;28637;50.554;7.032;2023-07-13T10:34:45;2.50;;;0.70;;
43014;SDS011;28637;50.554;7.032;2023-07-13T10:39:48;0.90;;;0.77;;
43014;SDS011;28637;50.554;7.032;2023-07-13T10:44:57;1.80;;;0.80;;
43014;SDS011;28637;50.554;7.032;2023-07-13T10:49:59;2.63;;;0.90;;
43014;SDS011;28637;50.554;7.032;2023-07-13T10:55:02;1.95;;;0.82;;
43014;SDS011;28637;50.554;7.032;2023-07-13T11:05:26;1.35;;;0.77;;
43014;SDS011;28637;50.554;7.032;2023-07-13T11:10:46;1.52;;;0.88;;
43014;SDS011;28637;50.554;7.032;2023-07-13T11:15:50;2.30;;;0.80;;
43014;SDS011;28637;50.554;7.032;2023-07-13T11:20:51;2.33;;;1.00;;
43014;SDS011;28637;50.554;7.032;2023-07-13T11:25:52;1.88;;;0.90;;
43014;SDS011;28637;50.554;7.032;2023-07-13T11:30:59;1.48;;;0.75;;
43014;SDS011;28637;50.554;7.032;2023-07-13T11:36:03;1.58;;;0.85;;
43014;SDS011;28637;50.554;7.032;2023-07-13T11:41:06;1.48;;;0.73;;
43014;SDS011;28637;50.554;7.032;2023-07-13T11:46:17;1.08;;;0.82;;
43014;SDS011;28637;50.554;7.032;2023-07-13T11:51:22;2.63;;;1.00;;
43014;SDS011;28637;50.554;7.032;2023-07-13T11:56:28;3.95;;;1.00;;
43014;SDS011;28637;50.554;7.032;2023-07-13T12:01:30;2.17;;;0.88;;
43014;SDS011;28637;50.554;7.032;2023-07-13T12:06:33;1.05;;;0.77;;
43014;SDS011;28637;50.554;7.032;2023-07-13T12:11:41;2.63;;;0.90;;
43014;SDS011;28637;50.554;7.032;2023-07-13T12:16:43;1.75;;;0.90;;
43014;SDS011;28637;50.554;7.032;2023-07-13T12:21:49;2.25;;;0.80;;
43014;SDS011;28637;50.554;7.032;2023-07-13T12:26:59;3.00;;;0.80;;
43014;SDS011;28637;50.554;7.032;2023-07-13T12:32:02;4.60;;;1.08;;
43014;SDS011;28637;50.554;7.032;2023-07-13T12:37:08;3.20;;;1.20;;
43014;SDS011;28637;50.554;7.032;2023-07-13T12:47:29;1.55;;;0.90;;
43014;SDS011;28637;50.554;7.032;2023-07-13T12:52:30;1.85;;;0.80;;
43014;SDS011;28637;50.554;7.032;2023-07-13T12:57:38;2.25;;;0.88;;
43014;SDS011;28637;50.554;7.032;2023-07-13T13:02:40;3.75;;;0.95;;
43014;SDS011;28637;50.554;7.032;2023-07-13T13:07:41;2.40;;;0.98;;
43014;SDS011;28637;50.554;7.032;2023-07-13T13:12:42;4.75;;;1.40;;
43014;SDS011;28637;50.554;7.032;2023-07-13T13:17:42;1.70;;;0.80;;
43014;SDS011;28637;50.554;7.032;2023-07-13T13:22:43;2.05;;;1.10;;
43014;SDS011;28637;50.554;7.032;2023-07-13T13:27:44;2.92;;;0.95;;
43014;SDS011;28637;50.554;7.032;2023-07-13T13:32:47;3.08;;;1.20;;
43014;SDS011;28637;50.554;7.032;2023-07-13T13:37:51;4.50;;;1.10;;
43014;SDS011;28637;50.554;7.032;2023-07-13T13:47:55;2.53;;;1.10;;
43014;SDS011;28637;50.554;7.032;2023-07-13T13:52:55;3.73;;;0.90;;
43014;SDS011;28637;50.554;7.032;2023-07-13T13:57:56;2.33;;;0.93;;
43014;SDS011;28637;50.554;7.032;2023-07-13T14:02:57;2.33;;;1.10;;
43014;SDS011;28637;50.554;7.032;2023-07-13T14:07:57;3.97;;;1.48;;
43014;SDS011;28637;50.554;7.032;2023-07-13T14:12:59;1.60;;;0.90;;
43014;SDS011;28637;50.554;7.032;2023-07-13T14:18:00;3.03;;;1.00;;
43014;SDS011;28637;50.554;7.032;2023-07-13T14:23:01;4.17;;;1.30;;
43014;SDS011;28637;50.554;7.032;2023-07-13T14:28:04;2.23;;;0.90;;
43014;SDS011;28637;50.554;7.032;2023-07-13T14:33:22;1.55;;;0.88;;
43014;SDS011;28637;50.554;7.032;2023-07-13T14:38:23;1.75;;;0.60;;
43014;SDS011;28637;50.554;7.032;2023-07-13T14:43:24;2.50;;;1.00;;
43014;SDS011;28637;50.554;7.032;2023-07-13T14:48:28;2.00;;;0.80;;
43014;SDS011;28637;50.554;7.032;2023-07-13T14:53:28;1.88;;;1.02;;
43014;SDS011;28637;50.554;7.032;2023-07-13T14:58:29;2.72;;;1.13;;
43014;SDS011;28637;50.554;7.032;2023-07-13T15:03:32;1.63;;;1.00;;
43014;SDS011;28637;50.554;7.032;2023-07-13T15:08:33;2.10;;;1.02;;
43014;SDS011;28637;50.554;7.032;2023-07-13T15:13:34;3.65;;;1.02;;
43014;SDS011;28637;50.554;7.032;2023-07-13T15:18:35;3.15;;;0.98;;
43014;SDS011;28637;50.554;7.032;2023-07-13T15:23:40;2.03;;;1.00;;
43014;SDS011;28637;50.554;7.032;2023-07-13T15:33:43;2.03;;;1.00;;
43014;SDS011;28637;50.554;7.032;2023-07-13T15:38:44;1.92;;;1.10;;
43014;SDS011;28637;50.554;7.032;2023-07-13T15:43:46;1.77;;;0.90;;
43014;SDS011;28637;50.554;7.032;2023-07-13T15:48:50;2.72;;;1.38;;
43014;SDS011;28637;50.554;7.032;2023-07-13T15:53:53;1.60;;;0.95;;
43014;SDS011;28637;50.554;7.032;2023-07-13T15:58:59;2.47;;;1.13;;
43014;SDS011;28637;50.554;7.032;2023-07-13T16:04:00;1.55;;;1.00;;
43014;SDS011;28637;50.554;7.032;2023-07-13T16:09:00;1.88;;;1.15;;
43014;SDS011;28637;50.554;7.032;2023-07-13T16:14:02;2.28;;;1.17;;
43014;SDS011;28637;50.554;7.032;2023-07-13T16:29:12;1.70;;;0.97;;
43014;SDS011;28637;50.554;7.032;2023-07-13T16:34:15;2.55;;;1.40;;
43014;SDS011;28637;50.554;7.032;2023-07-13T16:44:17;3.37;;;1.00;;
43014;SDS011;28637;50.554;7.032;2023-07-13T16:49:24;1.88;;;1.00;;
43014;SDS011;28637;50.554;7.032;2023-07-13T16:54:27;2.20;;;1.15;;
43014;SDS011;28637;50.554;7.032;2023-07-13T16:59:33;1.83;;;1.08;;
43014;SDS011;28637;50.554;7.032;2023-07-13T17:04:34;2.35;;;1.20;;
43014;SDS011;28637;50.554;7.032;2023-07-13T17:09:35;2.90;;;1.30;;
43014;SDS011;28637;50.554;7.032;2023-07-13T17:14:36;1.92;;;1.20;;
43014;SDS011;28637;50.554;7.032;2023-07-13T17:19:37;3.63;;;1.33;;
43014;SDS011;28637;50.554;7.032;2023-07-13T17:24:38;6.88;;;1.65;;
43014;SDS011;28637;50.554;7.032;2023-07-13T17:29:38;4.18;;;1.45;;
43014;SDS011;28637;50.554;7.032;2023-07-13T17:34:39;7.20;;;1.65;;
43014;SDS011;28637;50.554;7.032;2023-07-13T17:39:45;6.03;;;1.50;;
43014;SDS011;28637;50.554;7.032;2023-07-13T17:44:46;2.70;;;1.33;;
43014;SDS011;28637;50.554;7.032;2023-07-13T17:49:46;5.88;;;1.30;;
43014;SDS011;28637;50.554;7.032;2023-07-13T17:54:47;3.38;;;1.40;;
43014;SDS011;28637;50.554;7.032;2023-07-13T17:59:50;4.75;;;1.50;;
43014;SDS011;28637;50.554;7.032;2023-07-13T18:04:50;5.13;;;1.20;;
43014;SDS011;28637;50.554;7.032;2023-07-13T18:09:51;4.43;;;1.48;;
43014;SDS011;28637;50.554;7.032;2023-07-13T18:14:52;2.00;;;1.10;;
43014;SDS011;28637;50.554;7.032;2023-07-13T18:19:52;5.90;;;1.40;;
43014;SDS011;28637;50.554;7.032;2023-07-13T18:24:53;2.17;;;1.20;;
43014;SDS011;28637;50.554;7.032;2023-07-13T18:29:53;5.37;;;1.40;;
43014;SDS011;28637;50.554;7.032;2023-07-13T18:34:56;3.15;;;1.52;;
43014;SDS011;28637;50.554;7.032;2023-07-13T18:39:57;4.50;;;1.40;;
43014;SDS011;28637;50.554;7.032;2023-07-13T18:44:59;2.03;;;1.20;;
43014;SDS011;28637;50.554;7.032;2023-07-13T18:50:00;3.20;;;1.40;;
43014;SDS011;28637;50.554;7.032;2023-07-13T18:55:00;3.28;;;1.23;;
43014;SDS011;28637;50.554;7.032;2023-07-13T19:00:01;6.23;;;1.37;;
43014;SDS011;28637;50.554;7.032;2023-07-13T19:05:11;4.65;;;1.45;;
43014;SDS011;28637;50.554;7.032;2023-07-13T19:10:17;3.47;;;1.50;;
43014;SDS011;28637;50.554;7.032;2023-07-13T19:15:24;5.20;;;1.40;;
43014;SDS011;28637;50.554;7.032;2023-07-13T19:20:26;2.47;;;1.15;;
43014;SDS011;28637;50.554;7.032;2023-07-13T19:25:28;3.30;;;1.20;;
43014;SDS011;28637;50.554;7.032;2023-07-13T19:30:30;2.47;;;1.30;;
43014;SDS011;28637;50.554;7.032;2023-07-13T19:35:30;2.97;;;1.37;;
43014;SDS011;28637;50.554;7.032;2023-07-13T19:45:32;9.27;;;1.60;;
43014;SDS011;28637;50.554;7.032;2023-07-13T19:50:33;4.73;;;1.50;;
43014;SDS011;28637;50.554;7.032;2023-07-13T19:55:36;17.05;;;1.98;;
43014;SDS011;28637;50.554;7.032;2023-07-13T20:00:36;9.63;;;1.97;;
43014;SDS011;28637;50.554;7.032;2023-07-13T20:05:38;5.13;;;1.58;;
43014;SDS011;28637;50.554;7.032;2023-07-13T20:10:39;3.93;;;1.57;;
43014;SDS011;28637;50.554;7.032;2023-07-13T20:15:40;4.73;;;1.27;;
43014;SDS011;28637;50.554;7.032;2023-07-13T20:20:41;4.07;;;1.48;;
43014;SDS011;28637;50.554;7.032;2023-07-13T20:25:48;4.07;;;1.42;;
43014;SDS011;28637;50.554;7.032;2023-07-13T20:30:49;2.97;;;1.67;;
43014;SDS011;28637;50.554;7.032;2023-07-13T20:35:50;13.07;;;1.88;;
43014;SDS011;28637;50.554;7.032;2023-07-13T20:40:52;8.02;;;1.80;;
43014;SDS011;28637;50.554;7.032;2023-07-13T20:45:55;11.07;;;1.70;;
43014;SDS011;28637;50.554;7.032;2023-07-13T20:50:58;5.28;;;1.55;;
43014;SDS011;28637;50.554;7.032;2023-07-13T20:56:00;4.45;;;1.92;;
43014;SDS011;28637;50.554;7.032;2023-07-13T21:01:01;4.82;;;1.63;;
43014;SDS011;28637;50.554;7.032;2023-07-13T21:06:11;3.78;;;1.58;;
43014;SDS011;28637;50.554;7.032;2023-07-13T21:11:15;4.55;;;1.70;;
43014;SDS011;28637;50.554;7.032;2023-07-13T21:16:18;4.27;;;1.80;;
43014;SDS011;28637;50.554;7.032;2023-07-13T21:21:21;3.03;;;1.60;;
43014;SDS011;28637;50.554;7.032;2023-07-13T21:26:24;4.25;;;1.70;;
43014;SDS011;28637;50.554;7.032;2023-07-13T21:31:25;4.03;;;1.80;;
43014;SDS011;28637;50.554;7.032;2023-07-13T21:36:27;5.20;;;2.00;;
43014;SDS011;28637;50.554;7.032;2023-07-13T21:46:31;2.40;;;1.70;;
43014;SDS011;28637;50.554;7.032;2023-07-13T21:51:32;3.27;;;1.80;;
43014;SDS011;28637;50.554;7.032;2023-07-13T22:01:34;2.92;;;1.67;;
43014;SDS011;28637;50.554;7.032;2023-07-13T22:06:36;2.60;;;1.85;;
43014;SDS011;28637;50.554;7.032;2023-07-13T22:11:37;4.87;;;1.83;;
43014;SDS011;28637;50.554;7.032;2023-07-13T22:16:38;3.77;;;1.80;;
43014;SDS011;28637;50.554;7.032;2023-07-13T22:21:39;3.45;;;1.65;;
43014;SDS011;28637;50.554;7.032;2023-07-13T22:26:40;4.50;;;1.60;;
43014;SDS011;28637;50.554;7.032;2023-07-13T22:31:41;8.17;;;1.63;;
43014;SDS011;28637;50.554;7.032;2023-07-13T22:36:42;2.22;;;1.70;;
43014;SDS011;28637;50.554;7.032;2023-07-13T22:41:43;3.60;;;1.80;;
43014;SDS011;28637;50.554;7.032;2023-07-13T22:46:44;4.80;;;1.80;;
43014;SDS011;28637;50.554;7.032;2023-07-13T22:51:45;2.30;;;1.70;;
43014;SDS011;28637;50.554;7.032;2023-07-13T23:01:47;3.35;;;1.70;;
43014;SDS011;28637;50.554;7.032;2023-07-13T23:06:48;2.30;;;1.70;;
43014;SDS011;28637;50.554;7.032;2023-07-13T23:11:52;4.95;;;2.00;;
43014;SDS011;28637;50.554;7.032;2023-07-13T23:16:54;2.47;;;1.80;;
43014;SDS011;28637;50.554;7.032;2023-07-13T23:21:56;2.33;;;1.70;;
43014;SDS011;28637;50.554;7.032;2023-07-13T23:26:57;5.55;;;1.95;;
43014;SDS011;28637;50.554;7.032;2023-07-13T23:31:58;4.20;;;1.97;;
43014;SDS011;28637;50.554;7.032;2023-07-13T23:36:59;2.55;;;1.80;;
43014;SDS011;28637;50.554;7.032;2023-07-13T23:42:00;4.80;;;1.97;;
43014;SDS011;28637;50.554;7.032;2023-07-13T23:47:01;3.80;;;1.97;;
43014;SDS011;28637;50.554;7.032;2023-07-13T23:52:03;2.80;;;1.80;;
43014;SDS011;28637;50.554;7.032;2023-07-13T23:57:11;3.25;;;1.80;;
